Time;durP1;ratioP1;P1;durP2;ratioP2;P2;SDS_P1;SDS_P2;PMS_P1;PMS_P2;Temp;Humidity;BMP_temperature;BMP_pressure;BME280_temperature;BME280_humidity;BME280_pressure;Samples;Min_cycle;Max_cycle;Signal;HPM_P1;HPM_P2
2024/02/28 00:00:51;;;;;;;24.95;16.92;;;3.00;99.90;;;;;;4935044;28;20084;-62
2024/02/28 00:03:17;;;;;;;24.48;16.60;;;3.00;99.90;;;;;;4914416;28;20622;-61
2024/02/28 00:05:42;;;;;;;25.90;17.75;;;3.00;99.90;;;;;;4950707;28;20100;-61
2024/02/28 00:08:08;;;;;;;22.63;16.27;;;3.00;99.90;;;;;;4927262;28;20033;-61
2024/02/28 00:10:33;;;;;;;24.42;16.50;;;3.00;99.90;;;;;;4929544;28;20544;-62
2024/02/28 00:12:59;;;;;;;26.88;17.00;;;2.90;99.90;;;;;;4967065;28;20034;-63
2024/02/28 00:15:25;;;;;;;24.05;16.77;;;2.90;99.90;;;;;;4927144;28;20038;-62
2024/02/28 00:17:53;;;;;;;23.52;15.63;;;2.90;99.90;;;;;;4969932;28;20034;-63
2024/02/28 00:20:18;;;;;;;26.50;16.58;;;2.90;99.90;;;;;;4890544;28;20041;-62
2024/02/28 00:22:44;;;;;;;25.75;16.30;;;2.90;99.90;;;;;;4920962;28;20528;-62
2024/02/28 00:25:11;;;;;;;26.40;16.33;;;2.90;99.90;;;;;;4957916;28;20030;-62
2024/02/28 00:27:36;;;;;;;24.98;17.27;;;2.90;99.90;;;;;;4883050;28;20049;-62
2024/02/28 00:30:06;;;;;;;29.40;18.80;;;2.90;99.90;;;;;;4935894;28;20125;-63
2024/02/28 00:32:32;;;;;;;33.10;19.73;;;2.90;99.90;;;;;;4966618;28;20092;-62
2024/02/28 00:34:57;;;;;;;32.78;20.85;;;2.80;99.90;;;;;;4925974;28;20449;-62
2024/02/28 00:37:23;;;;;;;27.48;19.42;;;2.90;99.90;;;;;;4952952;28;20026;-63
2024/02/28 00:39:50;;;;;;;38.05;21.20;;;2.90;99.90;;;;;;4919852;28;20045;-62
2024/02/28 00:42:15;;;;;;;35.20;20.55;;;2.90;99.90;;;;;;4930914;28;21457;-62
2024/02/28 00:44:42;;;;;;;35.65;20.60;;;2.90;99.90;;;;;;4950679;28;20038;-62
2024/02/28 00:47:10;;;;;;;33.08;20.50;;;2.90;99.90;;;;;;4931124;28;20030;-62
2024/02/28 00:49:36;;;;;;;32.45;20.02;;;2.90;99.90;;;;;;4921479;28;20034;-63
2024/02/28 00:52:02;;;;;;;30.15;20.60;;;2.80;99.90;;;;;;4983726;28;20050;-62
2024/02/28 00:54:28;;;;;;;32.15;20.02;;;2.90;99.90;;;;;;4911294;28;20112;-62
2024/02/28 00:56:53;;;;;;;31.25;19.23;;;2.90;99.90;;;;;;4940361;28;20022;-62
2024/02/28 00:59:19;;;;;;;33.05;20.20;;;2.80;99.90;;;;;;4879620;28;20083;-62
2024/02/28 01:01:44;;;;;;;31.38;19.25;;;2.80;99.90;;;;;;4917370;28;20040;-62
2024/02/28 01:04:10;;;;;;;33.33;19.65;;;2.80;99.90;;;;;;4948106;28;20391;-62
2024/02/28 01:06:35;;;;;;;31.83;19.02;;;2.80;99.90;;;;;;4903992;28;20026;-62
2024/02/28 01:09:01;;;;;;;28.83;18.75;;;2.70;99.90;;;;;;4918377;28;20026;-63
2024/02/28 01:11:27;;;;;;;31.00;19.38;;;2.80;99.90;;;;;;4921941;28;20025;-63
2024/02/28 01:13:52;;;;;;;29.75;19.73;;;2.70;99.90;;;;;;4914218;28;21526;-63
2024/02/28 01:16:18;;;;;;;26.83;16.95;;;2.70;99.90;;;;;;4943130;28;20034;-63
2024/02/28 01:18:43;;;;;;;32.53;20.02;;;2.70;99.90;;;;;;4915908;28;20036;-62
2024/02/28 01:21:09;;;;;;;27.33;17.58;;;2.60;99.90;;;;;;4895499;28;20491;-63
2024/02/28 01:23:35;;;;;;;32.70;20.10;;;2.60;99.90;;;;;;4970056;28;20114;-63
2024/02/28 01:26:03;;;;;;;30.38;18.10;;;2.60;99.90;;;;;;4916268;28;20034;-63
2024/02/28 01:28:29;;;;;;;30.05;18.77;;;2.60;99.90;;;;;;4934330;28;20037;-63
2024/02/28 01:30:55;;;;;;;31.23;18.90;;;2.60;99.90;;;;;;4930007;28;20041;-63
2024/02/28 01:33:20;;;;;;;29.00;18.42;;;2.60;99.90;;;;;;4912852;28;22013;-63
2024/02/28 01:35:46;;;;;;;32.58;19.40;;;2.60;99.90;;;;;;4954747;28;20075;-63
2024/02/28 01:38:11;;;;;;;28.67;18.52;;;2.50;99.90;;;;;;4911678;28;20081;-61
2024/02/28 01:40:37;;;;;;;29.70;18.05;;;2.50;99.90;;;;;;4898570;28;20088;-61
2024/02/28 01:43:06;;;;;;;30.05;17.95;;;2.50;99.90;;;;;;4979573;28;20053;-61
2024/02/28 01:45:32;;;;;;;28.77;19.38;;;2.50;99.90;;;;;;4891065;28;20133;-62
2024/02/28 01:47:58;;;;;;;29.83;18.90;;;2.50;99.90;;;;;;4932335;28;20022;-62
2024/02/28 01:50:23;;;;;;;28.35;18.10;;;2.50;99.90;;;;;;4929833;28;20029;-62
2024/02/28 01:52:49;;;;;;;29.92;18.13;;;2.40;99.90;;;;;;4904505;28;21709;-62
2024/02/28 01:55:15;;;;;;;29.65;17.38;;;2.50;99.90;;;;;;4931353;28;20505;-62
2024/02/28 01:57:41;;;;;;;30.45;17.85;;;2.40;99.90;;;;;;4882258;28;20040;-62
2024/02/28 02:00:10;;;;;;;29.08;17.92;;;2.40;99.90;;;;;;4891701;28;20038;-63
2024/02/28 02:02:35;;;;;;;31.75;17.52;;;2.50;99.90;;;;;;4936873;28;20136;-62
2024/02/28 02:05:01;;;;;;;28.42;18.10;;;2.40;99.90;;;;;;4897453;28;20065;-62
2024/02/28 02:07:26;;;;;;;29.48;18.17;;;2.40;99.90;;;;;;4933986;28;20084;-62
2024/02/28 02:09:53;;;;;;;29.65;18.33;;;2.40;99.90;;;;;;4888522;28;20030;-62
2024/02/28 02:12:18;;;;;;;27.33;16.60;;;2.40;99.90;;;;;;4866469;28;21385;-63
2024/02/28 02:14:48;;;;;;;31.02;18.33;;;2.40;99.90;;;;;;4927160;28;20056;-62
2024/02/28 02:17:14;;;;;;;32.15;18.77;;;2.40;99.90;;;;;;4894427;28;20041;-61
2024/02/28 02:19:40;;;;;;;28.60;17.80;;;2.40;99.90;;;;;;4871176;28;20049;-62
2024/02/28 02:22:08;;;;;;;30.65;17.23;;;2.40;99.90;;;;;;4910619;28;20044;-62
2024/02/28 02:24:34;;;;;;;26.02;16.58;;;2.40;99.90;;;;;;4870588;28;20033;-62
2024/02/28 02:27:00;;;;;;;27.73;16.67;;;2.40;99.90;;;;;;4900758;28;20053;-63
2024/02/28 02:29:28;;;;;;;27.08;17.42;;;2.40;99.90;;;;;;4903562;28;20029;-62
2024/02/28 02:31:53;;;;;;;27.45;16.40;;;2.40;99.90;;;;;;4894801;28;21184;-62
2024/02/28 02:34:19;;;;;;;27.63;17.20;;;2.30;99.90;;;;;;4911928;28;20034;-62
2024/02/28 02:36:44;;;;;;;24.67;16.55;;;2.30;99.90;;;;;;4885835;28;20528;-60
2024/02/28 02:39:10;;;;;;;30.63;17.70;;;2.30;99.90;;;;;;4961113;28;20469;-61
2024/02/28 02:41:36;;;;;;;28.77;17.92;;;2.30;99.90;;;;;;4986957;28;20034;-61
2024/02/28 02:44:01;;;;;;;27.80;16.63;;;2.30;99.90;;;;;;4987976;28;20422;-61
2024/02/28 02:46:27;;;;;;;29.60;17.27;;;2.30;99.90;;;;;;4970317;28;20061;-62
2024/02/28 02:48:52;;;;;;;29.33;17.52;;;2.20;99.90;;;;;;4962696;28;20035;-61
2024/02/28 02:51:21;;;;;;;24.80;15.07;;;2.30;99.90;;;;;;4961031;28;20689;-62
2024/02/28 02:53:46;;;;;;;24.38;14.70;;;2.30;99.90;;;;;;4977541;28;20028;-62
2024/02/28 02:56:12;;;;;;;22.20;13.70;;;2.20;99.90;;;;;;4961344;28;20033;-62
2024/02/28 02:58:37;;;;;;;24.80;14.57;;;2.20;99.90;;;;;;4956027;28;20679;-62
2024/02/28 03:01:03;;;;;;;23.23;14.57;;;2.20;99.90;;;;;;4971245;28;20042;-62
2024/02/28 03:03:28;;;;;;;25.00;14.13;;;2.20;99.90;;;;;;4955039;28;20034;-62
2024/02/28 03:05:54;;;;;;;23.65;13.70;;;2.20;99.90;;;;;;4974766;28;20156;-62
2024/02/28 03:08:21;;;;;;;26.27;14.13;;;2.20;99.90;;;;;;4962144;28;20034;-62
2024/02/28 03:10:46;;;;;;;21.17;13.88;;;2.10;99.90;;;;;;4962713;28;20482;-61
2024/02/28 03:13:12;;;;;;;26.70;15.20;;;2.10;99.90;;;;;;4970516;28;20033;-61
2024/02/28 03:15:37;;;;;;;22.50;13.38;;;2.10;99.90;;;;;;4950527;28;20630;-63
2024/02/28 03:18:04;;;;;;;28.25;15.70;;;2.10;99.90;;;;;;4960665;28;20030;-62
2024/02/28 03:20:29;;;;;;;25.50;15.07;;;2.10;99.90;;;;;;4966484;23;20046;-55
2024/02/28 03:22:55;;;;;;;19.83;13.27;;;2.20;99.90;;;;;;4952425;28;20053;-53
2024/02/28 03:25:21;;;;;;;25.17;13.90;;;2.10;99.90;;;;;;4964852;28;20047;-53
2024/02/28 03:27:46;;;;;;;23.23;12.77;;;2.10;99.90;;;;;;4945764;28;20545;-59
2024/02/28 03:30:12;;;;;;;20.27;12.43;;;2.10;99.90;;;;;;4936530;28;20039;-53
2024/02/28 03:32:37;;;;;;;23.60;14.93;;;2.10;99.90;;;;;;4936210;28;20033;-50
2024/02/28 03:35:05;;;;;;;23.35;12.98;;;2.10;99.90;;;;;;4949036;28;20031;-53
2024/02/28 03:37:31;;;;;;;23.63;12.95;;;2.10;99.90;;;;;;4962508;28;20069;-56
2024/02/28 03:39:56;;;;;;;21.45;13.45;;;2.10;99.90;;;;;;4945244;28;20057;-51
2024/02/28 03:42:22;;;;;;;25.63;13.77;;;2.10;99.90;;;;;;4941332;28;20083;-52
2024/02/28 03:44:48;;;;;;;22.50;13.00;;;2.20;99.90;;;;;;4930556;28;20046;-58
2024/02/28 03:47:13;;;;;;;23.27;13.98;;;2.20;99.90;;;;;;4938626;28;20078;-55
2024/02/28 03:49:39;;;;;;;20.88;12.75;;;2.10;99.90;;;;;;4933463;28;20458;-56
2024/02/28 03:52:06;;;;;;;22.17;12.77;;;2.20;99.90;;;;;;4935572;28;20022;-50
2024/02/28 03:54:31;;;;;;;22.08;13.88;;;2.20;99.90;;;;;;4936714;28;20065;-51
2024/02/28 03:56:58;;;;;;;25.02;14.32;;;2.20;99.90;;;;;;4931817;28;20102;-51
2024/02/28 03:59:24;;;;;;;25.40;15.00;;;2.20;99.90;;;;;;4936885;28;20476;-53
2024/02/28 04:01:49;;;;;;;25.02;13.10;;;2.20;99.90;;;;;;4947407;28;20046;-59
2024/02/28 04:04:15;;;;;;;26.20;15.38;;;2.10;99.90;;;;;;4950842;28;20069;-53
2024/02/28 04:06:41;;;;;;;23.67;14.63;;;2.20;99.90;;;;;;4935702;28;20027;-51
2024/02/28 04:09:06;;;;;;;20.27;13.38;;;2.20;99.90;;;;;;4928512;28;20038;-51
2024/02/28 04:11:32;;;;;;;22.50;13.60;;;2.20;99.90;;;;;;4927766;28;20026;-50
2024/02/28 04:13:58;;;;;;;24.10;15.15;;;2.20;99.90;;;;;;4944395;28;20107;-50
2024/02/28 04:16:23;;;;;;;24.02;15.77;;;2.20;99.90;;;;;;4951125;28;20495;-53
2024/02/28 04:18:49;;;;;;;25.48;14.05;;;2.20;99.90;;;;;;4933957;28;20046;-52
2024/02/28 04:21:15;;;;;;;26.02;14.93;;;2.10;99.90;;;;;;4928173;28;20034;-52
2024/02/28 04:23:41;;;;;;;23.55;13.90;;;2.20;99.90;;;;;;4925859;28;20050;-46
2024/02/28 04:26:07;;;;;;;23.73;14.80;;;2.10;99.90;;;;;;4941503;28;20026;-50
2024/02/28 04:28:32;;;;;;;24.85;13.50;;;2.10;99.90;;;;;;4953751;28;20089;-53
2024/02/28 04:30:58;;;;;;;23.98;14.27;;;2.10;99.90;;;;;;4933688;28;20072;-49
2024/02/28 04:33:23;;;;;;;22.27;13.15;;;2.10;99.90;;;;;;4931437;28;20509;-49
2024/02/28 04:35:49;;;;;;;25.05;14.18;;;2.10;99.90;;;;;;4927962;28;20212;-52
2024/02/28 04:38:14;;;;;;;24.55;14.85;;;2.10;99.90;;;;;;4942642;28;20129;-49
2024/02/28 04:40:40;;;;;;;25.25;13.85;;;2.00;99.90;;;;;;4928197;28;20043;-53
2024/02/28 04:43:06;;;;;;;28.45;16.05;;;2.00;99.90;;;;;;4945164;28;20130;-49
2024/02/28 04:45:31;;;;;;;23.73;14.25;;;2.00;99.90;;;;;;4929205;28;20035;-50
2024/02/28 04:47:57;;;;;;;25.00;14.20;;;2.00;99.90;;;;;;4921883;28;20481;-54
2024/02/28 04:50:23;;;;;;;25.65;14.57;;;2.00;99.90;;;;;;4926120;28;20639;-55
2024/02/28 04:52:49;;;;;;;26.13;14.50;;;2.00;99.90;;;;;;4938422;28;20507;-55
2024/02/28 04:55:15;;;;;;;22.42;14.25;;;2.00;99.90;;;;;;4950331;28;21370;-50
2024/02/28 04:57:40;;;;;;;24.35;14.50;;;1.90;99.90;;;;;;4927527;28;20110;-51
2024/02/28 05:00:07;;;;;;;26.02;15.13;;;2.00;99.90;;;;;;4921808;28;20054;-54
2024/02/28 05:02:33;;;;;;;19.67;12.02;;;1.90;99.90;;;;;;4846144;28;20034;-48
2024/02/28 05:05:00;;;;;;;20.38;13.52;;;1.90;99.90;;;;;;4924353;28;20033;-50
2024/02/28 05:07:25;;;;;;;22.67;13.85;;;1.90;99.90;;;;;;4915416;28;20554;-49
2024/02/28 05:09:51;;;;;;;23.23;12.75;;;1.90;99.90;;;;;;4854070;28;20034;-51
2024/02/28 05:12:16;;;;;;;25.27;14.60;;;1.90;99.90;;;;;;4826572;28;20038;-50
2024/02/28 05:14:42;;;;;;;21.17;12.95;;;1.90;99.90;;;;;;4824190;28;21280;-48
2024/02/28 05:17:07;;;;;;;22.88;13.32;;;1.90;99.90;;;;;;4881062;28;20031;-53
2024/02/28 05:19:33;;;;;;;24.23;13.82;;;1.90;99.90;;;;;;4886076;28;20026;-56
2024/02/28 05:22:00;;;;;;;21.67;13.35;;;1.90;99.90;;;;;;4858980;28;20055;-57
2024/02/28 05:24:26;;;;;;;22.30;12.27;;;1.90;99.90;;;;;;4855388;28;20034;-46
2024/02/28 05:26:51;;;;;;;25.17;13.68;;;1.90;99.90;;;;;;4826729;28;20518;-48
2024/02/28 05:29:17;;;;;;;24.67;14.10;;;1.90;99.90;;;;;;4943472;28;20459;-57
2024/02/28 05:31:43;;;;;;;24.02;15.25;;;1.90;99.90;;;;;;4926756;28;20154;-52
2024/02/28 05:34:08;;;;;;;21.73;13.70;;;1.90;99.90;;;;;;4917874;28;20031;-48
2024/02/28 05:36:34;;;;;;;25.30;14.15;;;1.90;99.90;;;;;;4938958;28;20175;-47
2024/02/28 05:39:05;;;;;;;24.90;14.00;;;1.90;99.90;;;;;;4921665;28;20031;-55
2024/02/28 05:41:31;;;;;;;24.42;13.50;;;1.90;99.90;;;;;;4920219;28;20236;-58
2024/02/28 05:43:56;;;;;;;24.25;14.38;;;1.90;99.90;;;;;;4930218;28;20675;-52
2024/02/28 05:46:22;;;;;;;22.40;13.57;;;1.90;99.90;;;;;;4895068;28;20536;-52
2024/02/28 05:48:47;;;;;;;25.08;14.02;;;1.90;99.90;;;;;;4924360;28;20031;-53
2024/02/28 05:51:13;;;;;;;25.50;14.35;;;1.90;99.90;;;;;;4919996;28;20023;-52
2024/02/28 05:53:40;;;;;;;23.92;14.25;;;2.00;99.90;;;;;;4916445;28;20106;-51
2024/02/28 05:56:16;;;;;;;27.52;15.25;;;2.00;99.90;;;;;;4928325;28;20519;-50
2024/02/28 05:58:47;;;;;;;24.38;13.52;;;2.00;99.90;;;;;;4902434;28;20726;-52
2024/02/28 06:01:19;;;;;;;26.90;14.18;;;2.00;99.90;;;;;;4913938;28;20045;-52
2024/02/28 06:03:48;;;;;;;28.40;15.35;;;2.00;99.90;;;;;;4947089;28;20061;-50
2024/02/28 06:06:14;;;;;;;28.17;15.48;;;2.00;99.90;;;;;;4897811;28;20089;-54
2024/02/28 06:08:40;;;;;;;23.52;14.60;;;2.00;99.90;;;;;;4888631;28;21479;-54
2024/02/28 06:11:07;;;;;;;24.17;14.13;;;2.00;99.90;;;;;;4925127;28;20618;-50
2024/02/28 06:13:33;;;;;;;25.83;15.48;;;2.00;99.90;;;;;;4904341;28;20380;-51
2024/02/28 06:15:59;;;;;;;27.95;16.00;;;2.00;99.90;;;;;;4913497;28;20034;-58
2024/02/28 06:18:28;;;;;;;27.90;16.23;;;2.10;99.90;;;;;;4924023;28;20022;-50
2024/02/28 06:20:55;;;;;;;28.73;16.90;;;2.10;99.90;;;;;;4888310;28;20085;-54
2024/02/28 06:23:21;;;;;;;30.80;16.25;;;2.10;99.90;;;;;;4918423;28;20046;-58
2024/02/28 06:25:47;;;;;;;29.92;16.23;;;2.10;99.90;;;;;;4896548;28;20125;-50
2024/02/28 06:28:12;;;;;;;26.92;16.40;;;2.10;99.90;;;;;;4904785;28;20034;-53
2024/02/28 06:30:38;;;;;;;33.50;17.20;;;2.10;99.90;;;;;;4927522;28;20208;-53
2024/02/28 06:33:04;;;;;;;24.25;16.13;;;2.10;99.90;;;;;;4904250;28;20039;-51
2024/02/28 06:35:30;;;;;;;27.88;15.15;;;2.20;99.90;;;;;;4915899;28;20491;-59
2024/02/28 06:37:56;;;;;;;27.38;17.20;;;2.20;99.90;;;;;;4917913;28;20030;-51
2024/02/28 06:40:21;;;;;;;32.10;17.00;;;2.20;99.90;;;;;;4880319;28;21419;-51
2024/02/28 06:42:47;;;;;;;28.63;15.75;;;2.30;99.90;;;;;;4938313;28;20031;-51
2024/02/28 06:45:12;;;;;;;25.77;15.43;;;2.30;99.90;;;;;;4899664;28;20031;-49
2024/02/28 06:47:38;;;;;;;30.83;17.38;;;2.30;99.90;;;;;;4900581;28;21162;-53
2024/02/28 06:50:05;;;;;;;27.38;15.50;;;2.30;99.90;;;;;;4929194;28;20447;-48
2024/02/28 06:52:31;;;;;;;31.23;16.55;;;2.30;99.90;;;;;;4893177;28;20178;-51
2024/02/28 06:54:57;;;;;;;30.98;16.60;;;2.30;99.90;;;;;;4887603;28;20142;-58
2024/02/28 06:57:22;;;;;;;26.42;14.98;;;2.30;99.90;;;;;;4916246;28;20026;-48
2024/02/28 06:59:48;;;;;;;28.42;15.95;;;2.40;99.90;;;;;;4871489;28;20031;-51
2024/02/28 07:02:14;;;;;;;27.42;16.70;;;2.40;99.90;;;;;;4927744;28;20035;-52
2024/02/28 07:04:40;;;;;;;28.48;17.05;;;2.40;99.90;;;;;;4892788;28;20076;-53
2024/02/28 07:07:06;;;;;;;25.90;16.13;;;2.40;99.90;;;;;;4888467;28;20029;-50
2024/02/28 07:09:32;;;;;;;26.08;15.70;;;2.50;99.90;;;;;;4933263;28;20023;-47
2024/02/28 07:11:59;;;;;;;32.40;17.33;;;2.50;99.90;;;;;;4886356;28;20467;-49
2024/02/28 07:14:27;;;;;;;32.55;17.58;;;2.60;99.90;;;;;;4894312;28;20049;-57
2024/02/28 07:16:53;;;;;;;29.80;17.20;;;2.60;99.90;;;;;;4900835;28;20534;-50
2024/02/28 07:19:18;;;;;;;27.42;16.40;;;2.70;99.90;;;;;;4891023;28;21496;-53
2024/02/28 07:21:44;;;;;;;28.83;16.33;;;2.70;99.90;;;;;;4936415;28;20175;-50
2024/02/28 07:24:10;;;;;;;24.98;16.48;;;2.80;99.90;;;;;;4876634;28;20023;-51
2024/02/28 07:26:36;;;;;;;26.63;15.73;;;2.80;99.90;;;;;;4889407;28;20467;-50
2024/02/28 07:29:01;;;;;;;22.88;14.80;;;2.90;99.90;;;;;;4926900;28;20026;-50
2024/02/28 07:31:27;;;;;;;21.42;13.98;;;2.90;99.90;;;;;;4870370;28;20039;-48
2024/02/28 07:33:53;;;;;;;23.02;14.02;;;2.90;99.90;;;;;;4925346;28;20107;-49
2024/02/28 07:36:19;;;;;;;23.17;14.20;;;3.00;99.90;;;;;;4885182;28;20090;-49
2024/02/28 07:38:45;;;;;;;23.88;14.25;;;3.00;99.90;;;;;;4897623;28;20035;-51
2024/02/28 07:41:10;;;;;;;22.17;13.98;;;3.00;99.90;;;;;;4924481;28;20045;-48
2024/02/28 07:43:39;;;;;;;22.30;13.60;;;3.10;99.90;;;;;;4876714;28;20153;-51
2024/02/28 07:46:09;;;;;;;22.67;14.18;;;3.10;99.90;;;;;;4895512;28;20020;-58
2024/02/28 07:48:34;;;;;;;27.75;16.25;;;3.20;99.90;;;;;;4933700;28;20031;-52
2024/02/28 07:51:00;;;;;;;34.78;18.73;;;3.20;99.90;;;;;;4897982;28;20030;-50
2024/02/28 07:53:26;;;;;;;32.75;20.38;;;3.20;99.90;;;;;;4901620;28;20027;-49
2024/02/28 07:55:52;;;;;;;37.20;23.48;;;3.30;99.90;;;;;;4897886;28;20027;-51
2024/02/28 07:58:17;;;;;;;25.13;16.42;;;3.30;99.90;;;;;;4877801;28;20773;-57
2024/02/28 08:00:43;;;;;;;25.88;16.35;;;3.30;99.90;;;;;;4934283;28;20038;-47
2024/02/28 08:03:09;;;;;;;23.85;14.75;;;3.40;99.90;;;;;;4888940;28;20027;-49
2024/02/28 08:05:39;;;;;;;24.83;15.18;;;3.40;99.90;;;;;;4883844;28;20031;-57
2024/02/28 08:08:08;;;;;;;20.92;13.80;;;3.50;99.90;;;;;;4916241;28;20230;-50
2024/02/28 08:10:35;;;;;;;19.63;13.07;;;3.50;99.90;;;;;;4877357;28;20755;-48
2024/02/28 08:13:01;;;;;;;25.40;16.17;;;3.60;99.90;;;;;;4903840;28;20023;-58
2024/02/28 08:15:26;;;;;;;21.50;14.20;;;3.60;99.90;;;;;;4920096;28;20023;-50
2024/02/28 08:17:52;;;;;;;20.08;13.32;;;3.70;99.90;;;;;;4883728;28;21066;-50
2024/02/28 08:20:17;;;;;;;19.63;13.93;;;3.80;99.90;;;;;;4907012;28;20093;-55
2024/02/28 08:22:43;;;;;;;26.40;15.70;;;3.80;99.90;;;;;;4855779;28;20430;-50
2024/02/28 08:25:11;;;;;;;27.58;16.75;;;3.90;99.90;;;;;;4874637;28;20436;-51
2024/02/28 08:27:37;;;;;;;27.17;17.80;;;3.90;99.90;;;;;;4930736;28;20031;-51
2024/02/28 08:30:03;;;;;;;24.30;16.55;;;4.00;99.90;;;;;;4869489;28;20595;-51
2024/02/28 08:32:29;;;;;;;24.65;16.02;;;4.00;99.90;;;;;;4902683;28;20399;-49
2024/02/28 08:34:54;;;;;;;29.95;17.38;;;4.10;99.90;;;;;;4872763;28;20023;-52
2024/02/28 08:37:20;;;;;;;24.73;16.02;;;4.00;99.90;;;;;;4869377;28;21325;-51
2024/02/28 08:39:46;;;;;;;26.77;17.05;;;4.00;99.90;;;;;;4911316;28;20073;-47
2024/02/28 08:42:12;;;;;;;28.75;17.48;;;4.00;99.90;;;;;;4878498;28;20031;-49
2024/02/28 08:44:37;;;;;;;28.85;17.08;;;4.00;99.90;;;;;;4862881;28;20035;-50
2024/02/28 08:47:03;;;;;;;27.60;16.65;;;4.00;99.90;;;;;;4901084;28;20038;-51
2024/02/28 08:49:30;;;;;;;28.02;18.27;;;4.00;99.90;;;;;;4871846;28;20077;-46
2024/02/28 08:51:57;;;;;;;33.10;18.95;;;4.20;99.90;;;;;;4916833;28;20031;-58
2024/02/28 08:54:22;;;;;;;29.02;18.10;;;4.50;99.90;;;;;;4891751;28;20140;-51
2024/02/28 08:56:48;;;;;;;32.17;19.20;;;4.60;99.90;;;;;;4882798;28;20122;-48
2024/02/28 08:59:14;;;;;;;29.98;19.48;;;4.80;99.90;;;;;;4918967;28;20031;-50
2024/02/28 09:01:41;;;;;;;27.02;17.20;;;4.90;99.90;;;;;;4874442;28;20436;-50
2024/02/28 09:04:07;;;;;;;28.27;18.20;;;5.00;99.90;;;;;;4872369;28;20041;-57
2024/02/28 09:06:32;;;;;;;26.85;17.60;;;5.00;99.90;;;;;;4908946;28;20023;-48
2024/02/28 09:08:58;;;;;;;26.90;16.95;;;5.00;99.90;;;;;;4879265;28;20121;-47
2024/02/28 09:11:24;;;;;;;29.13;18.65;;;5.00;99.90;;;;;;4892141;28;20030;-50
2024/02/28 09:13:50;;;;;;;28.08;17.75;;;5.00;99.90;;;;;;4856822;28;20295;-52
2024/02/28 09:16:16;;;;;;;29.45;17.83;;;5.10;99.90;;;;;;4855926;28;20885;-52
2024/02/28 09:18:42;;;;;;;22.88;15.68;;;5.10;99.90;;;;;;4912992;28;21134;-48
2024/02/28 09:21:08;;;;;;;27.00;16.45;;;5.10;99.90;;;;;;4873451;23;20034;-84
2024/02/28 09:23:34;;;;;;;26.60;16.27;;;5.10;99.90;;;;;;4888154;28;20823;-84
2024/02/28 09:28:57;;;;;;;29.73;16.40;;;5.10;99.90;;;;;;4871824;28;20058;-84
2024/02/28 09:31:22;;;;;;;28.83;17.20;;;5.10;99.90;;;;;;4860996;28;20027;-85
2024/02/28 09:33:48;;;;;;;26.33;16.35;;;5.10;99.90;;;;;;4899508;28;20074;-84
2024/02/28 09:36:22;;;;;;;30.00;17.55;;;5.30;99.90;;;;;;4877553;28;20045;-88
2024/02/28 09:38:48;;;;;;;26.10;16.33;;;5.50;99.90;;;;;;4856821;28;20030;-84
2024/02/28 09:41:17;;;;;;;23.30;15.63;;;5.80;99.90;;;;;;4889989;28;20034;-84
2024/02/28 09:43:45;;;;;;;22.27;16.00;;;6.10;99.90;;;;;;4855497;28;20057;-84
2024/02/28 09:46:12;;;;;;;28.25;16.23;;;6.30;99.90;;;;;;4848666;28;20035;-84
2024/02/28 09:48:41;;;;;;;24.77;15.70;;;6.40;99.90;;;;;;4922991;28;20041;-85
2024/02/28 09:51:09;;;;;;;27.08;16.65;;;6.60;99.90;;;;;;4885597;28;20030;-85
2024/02/28 09:53:35;;;;;;;23.02;15.75;;;6.70;99.90;;;;;;4862276;28;20043;-87
2024/02/28 09:56:01;;;;;;;22.10;15.15;;;6.80;99.90;;;;;;4902922;28;20050;-84
2024/02/28 09:58:27;;;;;;;20.38;13.43;;;6.90;99.90;;;;;;4892419;28;20026;-85
2024/02/28 10:00:59;;;;;;;20.60;12.45;;;7.00;99.90;;;;;;4925949;28;20035;-84
2024/02/28 10:03:26;;;;;;;22.88;14.18;;;6.90;99.90;;;;;;4897827;28;20403;-85
2024/02/28 10:05:51;;;;;;;19.08;12.88;;;6.80;99.90;;;;;;4887037;28;21581;-84
2024/02/28 10:08:17;;;;;;;19.55;13.18;;;6.80;99.90;;;;;;4944295;28;20034;-85
2024/02/28 10:10:49;;;;;;;22.15;13.93;;;6.80;99.90;;;;;;4852449;28;20054;-84
2024/02/28 10:13:18;;;;;;;20.27;14.00;;;6.90;99.90;;;;;;4845220;28;22390;-84
2024/02/28 10:15:44;;;;;;;23.27;14.48;;;6.90;99.90;;;;;;4904220;28;20050;-85
2024/02/28 10:18:10;;;;;;;22.33;13.20;;;6.90;99.90;;;;;;4857774;28;20046;-85
2024/02/28 10:20:39;;;;;;;21.02;13.52;;;7.00;99.90;;;;;;4861548;28;20039;-84
2024/02/28 10:23:06;;;;;;;18.42;12.48;;;7.10;99.90;;;;;;4884112;28;20043;-84
2024/02/28 10:25:41;;;;;;;19.85;14.13;;;7.20;99.90;;;;;;4852163;28;20030;-85
2024/02/28 10:28:07;;;;;;;21.08;13.30;;;7.40;99.90;;;;;;4841977;28;20031;-86
2024/02/28 10:30:32;;;;;;;20.17;13.23;;;7.50;99.90;;;;;;4884511;28;20039;-85
2024/02/28 10:32:58;;;;;;;18.92;11.82;;;7.60;99.90;;;;;;4871668;28;20031;-84
2024/02/28 10:35:25;;;;;;;18.75;12.65;;;7.60;99.90;;;;;;4917228;28;20039;-85
2024/02/28 10:37:52;;;;;;;20.70;12.82;;;7.60;99.90;;;;;;4881435;28;20030;-86
2024/02/28 10:40:20;;;;;;;22.58;13.23;;;7.60;99.90;;;;;;4880796;28;21926;-85
2024/02/28 10:42:46;;;;;;;21.48;12.65;;;7.60;99.90;;;;;;4897891;28;21541;-85
2024/02/28 10:45:12;;;;;;;19.20;12.20;;;7.60;99.90;;;;;;4905186;28;20125;-85
2024/02/28 10:47:41;;;;;;;21.08;12.85;;;7.50;99.90;;;;;;4905853;28;20030;-85
2024/02/28 10:50:07;;;;;;;18.60;12.45;;;7.50;99.90;;;;;;4934588;28;20037;-85
2024/02/28 10:52:45;;;;;;;20.85;12.90;;;7.40;99.90;;;;;;4906604;28;20027;-85
2024/02/28 10:55:11;;;;;;;18.77;12.70;;;7.40;99.90;;;;;;4908980;28;20027;-85
2024/02/28 10:57:39;;;;;;;20.73;12.52;;;7.40;99.90;;;;;;4923961;28;20360;-85
2024/02/28 11:00:06;;;;;;;20.33;12.18;;;7.40;99.90;;;;;;4930839;28;20023;-85
2024/02/28 11:02:32;;;;;;;20.58;12.13;;;7.40;99.90;;;;;;4924183;28;20035;-84
2024/02/28 11:05:01;;;;;;;19.63;12.25;;;7.50;99.90;;;;;;4926670;28;20058;-85
2024/02/28 11:07:26;;;;;;;19.20;11.95;;;7.60;99.90;;;;;;4895620;28;20554;-86
2024/02/28 11:09:55;;;;;;;17.73;11.90;;;7.50;99.90;;;;;;4938867;28;20039;-84
2024/02/28 11:12:28;;;;;;;20.35;12.35;;;7.50;99.90;;;;;;4921859;28;20081;-84
2024/02/28 11:14:58;;;;;;;18.85;12.15;;;7.60;99.90;;;;;;4892809;28;21378;-84
2024/02/28 11:17:29;;;;;;;16.70;11.65;;;7.70;99.90;;;;;;4922520;28;20510;-84
2024/02/28 11:19:56;;;;;;;17.30;11.93;;;7.80;99.90;;;;;;4876881;28;20029;-86
2024/02/28 11:22:21;;;;;;;16.90;11.98;;;7.80;99.90;;;;;;4897158;28;20031;-85
2024/02/28 11:24:50;;;;;;;18.60;12.57;;;7.90;99.90;;;;;;4866694;28;20038;-84
2024/02/28 11:27:16;;;;;;;19.05;12.52;;;8.00;99.90;;;;;;4924884;28;20030;-85
2024/02/28 11:29:42;;;;;;;18.90;12.13;;;8.00;99.90;;;;;;4901879;28;20014;-89
2024/02/28 11:32:08;;;;;;;19.83;13.68;;;8.00;99.90;;;;;;4937691;28;20023;-88
2024/02/28 11:34:36;;;;;;;19.85;12.48;;;8.10;99.90;;;;;;4923394;28;20029;-85
2024/02/28 11:37:03;;;;;;;20.73;12.85;;;8.10;99.90;;;;;;4915376;28;20023;-84
2024/02/28 11:39:31;;;;;;;21.80;12.85;;;8.20;99.90;;;;;;4874619;28;20130;-86
2024/02/28 11:42:13;;;;;;;19.08;11.95;;;8.20;99.90;;;;;;4906549;28;21471;-86
2024/02/28 11:44:39;;;;;;;21.98;12.45;;;8.20;99.90;;;;;;4864436;28;20074;-85
2024/02/28 11:47:04;;;;;;;21.42;13.05;;;8.20;99.90;;;;;;4908859;28;20113;-85
2024/02/28 11:49:33;;;;;;;21.48;13.35;;;8.20;99.90;;;;;;4924046;28;20042;-85
2024/02/28 11:51:58;;;;;;;17.85;11.57;;;8.10;99.90;;;;;;4879900;28;20034;-86
2024/02/28 11:54:24;;;;;;;17.88;11.77;;;8.10;99.90;;;;;;4857970;28;20194;-85
2024/02/28 11:56:50;;;;;;;18.35;11.52;;;8.10;99.90;;;;;;4880854;28;21466;-84
2024/02/28 11:59:15;;;;;;;16.75;10.30;;;8.20;99.90;;;;;;4906155;28;21601;-85
2024/02/28 12:01:43;;;;;;;15.63;10.38;;;8.20;99.90;;;;;;4842635;28;20522;-85
2024/02/28 12:04:10;;;;;;;15.95;9.95;;;8.20;99.90;;;;;;4886678;28;20031;-84
2024/02/28 12:06:49;;;;;;;18.60;11.32;;;8.10;99.90;;;;;;4941487;28;20055;-84
2024/02/28 12:09:14;;;;;;;17.88;11.68;;;8.00;99.90;;;;;;4953517;28;20299;-84
2024/02/28 12:12:18;;;;;;;17.77;11.20;;;7.90;99.90;;;;;;4943655;28;20027;-82
2024/02/28 12:14:52;;;;;;;18.95;11.95;;;7.90;99.90;;;;;;4941207;28;20043;-85
2024/02/28 12:17:18;;;;;;;22.88;12.98;;;8.00;99.90;;;;;;4962701;28;20062;-84
2024/02/28 12:19:44;;;;;;;17.15;11.75;;;8.00;99.90;;;;;;4944249;28;20058;-85
2024/02/28 12:22:10;;;;;;;19.88;11.52;;;8.10;99.90;;;;;;4940297;28;20470;-86
2024/02/28 12:24:36;;;;;;;20.42;11.27;;;8.10;99.90;;;;;;4939414;28;20035;-82
2024/02/28 12:27:02;;;;;;;17.05;11.45;;;8.10;99.90;;;;;;4951528;28;20129;-85
2024/02/28 12:29:27;;;;;;;14.30;10.50;;;8.00;99.90;;;;;;4967237;28;20490;-85
2024/02/28 12:31:53;;;;;;;15.07;10.60;;;8.00;99.90;;;;;;4939677;28;20475;-84
2024/02/28 12:34:18;;;;;;;16.60;11.35;;;8.00;99.90;;;;;;4943216;28;20034;-85